Time;durP1;ratioP1;P1;durP2;ratioP2;P2;SDS_P1;SDS_P2;PMS_P1;PMS_P2;Temp;Humidity;BMP_temperature;BMP_pressure;BME280_temperature;BME280_humidity;BME280_pressure;Samples;Min_cycle;Max_cycle;Signal;HPM_P1;HPM_P2
2023/05/02 00:01:18;;;;;;;8.27;5.50;;;10.90;99.90;;;;;;5072432;28;20020;-50
2023/05/02 00:03:44;;;;;;;11.57;6.50;;;10.90;99.90;;;;;;5072512;28;20037;-48
2023/05/02 00:06:10;;;;;;;14.27;6.93;;;10.80;99.90;;;;;;5072654;28;20017;-47
2023/05/02 00:08:36;;;;;;;12.98;6.43;;;10.80;99.90;;;;;;5072837;28;20060;-56
2023/05/02 00:11:02;;;;;;;11.85;6.63;;;10.80;99.90;;;;;;5072355;28;20098;-47
2023/05/02 00:13:27;;;;;;;11.45;6.38;;;10.80;99.90;;;;;;5072314;28;20056;-52
2023/05/02 00:15:53;;;;;;;9.32;5.85;;;10.70;99.90;;;;;;5072165;28;20431;-50
2023/05/02 00:18:19;;;;;;;13.60;6.82;;;10.70;99.90;;;;;;5072354;28;20032;-47
2023/05/02 00:20:44;;;;;;;9.57;5.45;;;10.70;99.90;;;;;;5072276;28;20029;-49
2023/05/02 00:23:12;;;;;;;8.40;5.00;;;10.60;99.90;;;;;;5070730;28;20438;-51
2023/05/02 00:25:46;;;;;;;7.95;4.65;;;10.50;99.90;;;;;;5072476;28;20017;-45
2023/05/02 00:28:12;;;;;;;9.45;4.68;;;10.30;99.90;;;;;;5072371;28;20029;-45
2023/05/02 00:30:47;;;;;;;9.90;5.40;;;10.30;99.90;;;;;;5072107;28;20047;-48
2023/05/02 00:33:14;;;;;;;10.18;5.00;;;10.10;99.90;;;;;;5070385;28;20560;-47
2023/05/02 00:35:40;;;;;;;8.60;4.57;;;10.10;99.90;;;;;;5072254;28;20063;-47
2023/05/02 00:38:06;;;;;;;8.90;5.00;;;10.10;99.90;;;;;;5057602;28;20021;-49
2023/05/02 00:40:43;;;;;;;10.98;5.93;;;10.00;99.90;;;;;;5072274;28;20515;-47
2023/05/02 00:43:09;;;;;;;11.07;6.13;;;10.00;99.90;;;;;;5071932;28;20090;-47
2023/05/02 00:45:35;;;;;;;11.52;6.00;;;10.00;99.90;;;;;;5071771;28;20024;-49
2023/05/02 00:48:00;;;;;;;8.13;5.60;;;9.90;99.90;;;;;;5071720;28;20426;-50
2023/05/02 00:50:27;;;;;;;9.50;6.10;;;9.90;99.90;;;;;;5071385;28;20429;-51
2023/05/02 00:52:54;;;;;;;11.43;6.28;;;9.90;99.90;;;;;;5071429;28;20458;-50
2023/05/02 00:55:20;;;;;;;10.15;6.38;;;9.90;99.90;;;;;;5071616;28;20021;-46
2023/05/02 00:57:45;;;;;;;8.60;5.43;;;9.90;99.90;;;;;;5071398;28;20035;-50
2023/05/02 01:00:12;;;;;;;10.27;5.13;;;9.80;99.90;;;;;;5071330;28;20027;-53
2023/05/02 01:02:50;;;;;;;10.07;5.60;;;9.70;99.90;;;;;;5070231;28;20041;-50
2023/05/02 01:05:41;;;;;;;9.68;4.68;;;9.70;99.90;;;;;;5071671;28;20021;-48
2023/05/02 01:08:28;;;;;;;7.43;4.80;;;9.60;99.90;;;;;;5061100;28;20024;-57
2023/05/02 01:11:11;;;;;;;9.63;5.13;;;9.50;99.90;;;;;;5071303;28;20017;-57
2023/05/02 01:13:40;;;;;;;8.93;4.88;;;9.40;99.90;;;;;;5071595;28;20031;-47
2023/05/02 01:16:08;;;;;;;10.52;5.68;;;9.40;99.90;;;;;;5071394;28;20077;-51
2023/05/02 01:18:37;;;;;;;9.40;5.32;;;9.30;99.90;;;;;;5071304;28;20161;-53
2023/05/02 01:21:06;;;;;;;8.80;4.78;;;9.30;99.90;;;;;;5071312;28;20028;-54
2023/05/02 01:23:56;;;;;;;8.20;5.00;;;9.30;99.90;;;;;;5071284;28;20518;-57
2023/05/02 01:26:27;;;;;;;;;;;9.20;99.90;;;;;;5071209;28;20021;-56
2023/05/02 01:29:00;;;;;;;10.88;4.93;;;9.20;99.90;;;;;;5070914;28;20295;-47
2023/05/02 01:31:30;;;;;;;9.88;5.38;;;9.10;99.90;;;;;;5070977;28;20037;-46
2023/05/02 01:33:57;;;;;;;9.05;5.70;;;9.00;99.90;;;;;;5070984;28;20025;-53
2023/05/02 01:36:29;;;;;;;12.57;5.80;;;8.90;99.90;;;;;;5070543;28;20475;-53
2023/05/02 01:38:55;;;;;;;10.50;5.78;;;8.90;99.90;;;;;;5058174;28;20036;-48
2023/05/02 01:41:26;;;;;;;8.02;5.35;;;8.90;99.90;;;;;;5071087;28;20052;-48
2023/05/02 01:43:58;;;;;;;9.70;5.25;;;8.80;99.90;;;;;;5070506;28;20405;-49
2023/05/02 01:46:31;;;;;;;9.73;5.43;;;8.80;99.90;;;;;;5070849;28;20535;-53
2023/05/02 01:49:00;;;;;;;11.57;5.25;;;8.90;99.90;;;;;;5070688;28;20024;-53
2023/05/02 01:51:30;;;;;;;7.40;4.80;;;8.90;99.90;;;;;;5070923;28;20020;-51
2023/05/02 01:54:00;;;;;;;8.52;5.35;;;8.90;99.90;;;;;;5070719;28;20391;-53
2023/05/02 01:56:27;;;;;;;9.07;5.43;;;8.90;99.90;;;;;;5070627;28;20025;-54
2023/05/02 01:58:55;;;;;;;9.68;5.60;;;9.00;99.90;;;;;;5070531;28;20090;-50
2023/05/02 02:01:26;;;;;;;8.98;5.20;;;9.00;99.90;;;;;;5052844;28;20024;-53
2023/05/02 02:03:55;;;;;;;8.15;5.20;;;9.00;99.90;;;;;;5053778;28;20472;-51
2023/05/02 02:06:21;;;;;;;9.27;5.38;;;9.00;99.90;;;;;;5093341;28;20020;-55
2023/05/02 02:08:47;;;;;;;8.93;5.25;;;9.00;99.90;;;;;;5059527;28;20506;-47
2023/05/02 02:11:23;;;;;;;8.07;5.22;;;9.10;99.90;;;;;;5066086;28;20133;-55
2023/05/02 02:13:56;;;;;;;7.80;4.70;;;9.10;99.90;;;;;;5070297;28;20060;-54
2023/05/02 02:16:27;;;;;;;7.80;4.68;;;9.00;99.90;;;;;;5068619;28;20063;-52
2023/05/02 02:18:55;;;;;;;8.63;4.85;;;9.00;99.90;;;;;;5058892;28;20025;-57
2023/05/02 02:21:24;;;;;;;7.55;5.25;;;9.00;99.90;;;;;;5070459;28;20048;-50
2023/05/02 02:23:54;;;;;;;10.57;6.03;;;8.90;99.90;;;;;;5070461;28;20032;-51
2023/05/02 02:26:32;;;;;;;7.97;4.90;;;8.90;99.90;;;;;;5070103;28;20032;-46
2023/05/02 02:28:59;;;;;;;6.75;4.82;;;8.80;99.90;;;;;;5057566;28;20037;-54
2023/05/02 02:31:30;;;;;;;9.10;5.05;;;8.80;99.90;;;;;;5070415;28;20552;-53
2023/05/02 02:33:56;;;;;;;7.22;4.90;;;8.80;99.90;;;;;;5064480;28;20032;-46
2023/05/02 02:36:32;;;;;;;8.50;5.13;;;8.80;99.90;;;;;;5094639;28;20395;-48
2023/05/02 02:39:19;;;;;;;8.60;4.63;;;8.80;99.90;;;;;;5069792;28;20024;-46
2023/05/02 02:41:54;;;;;;;8.50;4.88;;;8.80;99.90;;;;;;5070035;28;20045;-51
2023/05/02 02:44:28;;;;;;;8.43;5.20;;;8.70;99.90;;;;;;5070247;28;20115;-48
2023/05/02 02:47:10;;;;;;;8.75;5.07;;;8.70;99.90;;;;;;5070236;28;20020;-52
2023/05/02 02:49:58;;;;;;;9.13;5.05;;;8.70;99.90;;;;;;5070219;28;20024;-46
2023/05/02 02:52:32;;;;;;;8.10;5.30;;;8.70;99.90;;;;;;5070039;28;20025;-51
2023/05/02 02:55:16;;;;;;;9.18;5.03;;;8.70;99.90;;;;;;5070132;28;20038;-51
2023/05/02 02:57:57;;;;;;;8.35;5.10;;;8.70;99.90;;;;;;5069831;28;20047;-56
2023/05/02 03:00:27;;;;;;;8.13;5.03;;;8.70;99.90;;;;;;5069667;28;20035;-48
2023/05/02 03:02:54;;;;;;;10.95;5.03;;;8.70;99.90;;;;;;5056361;28;20045;-52
2023/05/02 03:05:21;;;;;;;9.77;4.45;;;8.70;99.90;;;;;;5070238;28;20033;-46
2023/05/02 03:07:47;;;;;;;7.70;3.85;;;8.60;99.90;;;;;;5066421;28;20018;-52
2023/05/02 03:10:13;;;;;;;8.00;4.63;;;8.50;99.90;;;;;;5059556;28;20043;-53
2023/05/02 03:12:38;;;;;;;7.93;4.22;;;8.50;99.90;;;;;;5070715;28;20518;-51
2023/05/02 03:15:35;;;;;;;7.13;4.40;;;8.40;99.90;;;;;;5073657;28;20024;-50
2023/05/02 03:18:01;;;;;;;9.77;4.75;;;8.40;99.90;;;;;;5073585;28;20028;-49
2023/05/02 03:20:26;;;;;;;8.60;4.50;;;8.40;99.90;;;;;;5073582;28;20395;-48
2023/05/02 03:22:52;;;;;;;7.10;4.07;;;8.30;99.90;;;;;;5073285;28;20140;-47
2023/05/02 03:25:17;;;;;;;6.72;4.57;;;8.20;99.90;;;;;;5072153;28;20017;-50
2023/05/02 03:27:43;;;;;;;8.27;4.43;;;8.20;99.90;;;;;;5073233;28;20368;-53
2023/05/02 03:30:09;;;;;;;8.20;4.82;;;8.20;99.90;;;;;;5073146;28;20025;-49
2023/05/02 03:32:35;;;;;;;6.53;4.13;;;8.10;99.90;;;;;;5073361;28;20029;-49
2023/05/02 03:35:00;;;;;;;6.70;4.38;;;8.10;99.90;;;;;;5073158;28;20392;-47
2023/05/02 03:37:26;;;;;;;8.27;5.05;;;8.00;99.90;;;;;;5073155;28;20035;-53
2023/05/02 03:39:51;;;;;;;8.75;5.13;;;8.10;99.90;;;;;;5073294;28;20028;-56
2023/05/02 03:42:17;;;;;;;8.45;4.75;;;8.20;99.90;;;;;;5073069;28;20068;-47
2023/05/02 03:44:43;;;;;;;8.30;4.55;;;8.10;99.90;;;;;;5073103;28;20029;-48
2023/05/02 03:47:08;;;;;;;7.07;4.32;;;8.00;99.90;;;;;;5073153;28;20012;-57
2023/05/02 03:49:35;;;;;;;8.02;3.97;;;8.00;99.90;;;;;;5073252;28;20047;-54
2023/05/02 03:52:00;;;;;;;8.13;4.30;;;8.00;99.90;;;;;;5072511;28;20426;-54
2023/05/02 03:54:26;;;;;;;13.60;5.00;;;7.90;99.90;;;;;;5070168;28;20033;-59
2023/05/02 03:56:54;;;;;;;9.13;5.00;;;7.90;99.90;;;;;;5057205;28;20065;-53
2023/05/02 03:59:20;;;;;;;7.13;3.97;;;7.90;99.90;;;;;;5052526;28;20104;-51
2023/05/02 04:01:49;;;;;;;7.93;5.10;;;7.80;99.90;;;;;;5052770;28;20104;-51
2023/05/02 04:04:15;;;;;;;10.55;5.22;;;7.80;99.90;;;;;;5052595;28;20052;-46
2023/05/02 04:06:40;;;;;;;11.55;5.47;;;7.90;99.90;;;;;;5052702;28;20021;-51
2023/05/02 04:09:06;;;;;;;8.27;5.53;;;7.90;99.90;;;;;;5052943;28;20086;-52
2023/05/02 04:11:33;;;;;;;10.15;5.18;;;8.00;99.90;;;;;;5072862;28;20081;-56
2023/05/02 04:13:59;;;;;;;8.85;6.03;;;7.90;99.90;;;;;;5072277;28;20028;-53
2023/05/02 04:16:25;;;;;;;11.55;5.82;;;8.00;99.90;;;;;;5069892;28;20092;-57
2023/05/02 04:18:50;;;;;;;8.63;5.32;;;8.00;99.90;;;;;;5061353;28;20031;-50
2023/05/02 04:21:16;;;;;;;9.13;6.07;;;8.00;99.90;;;;;;5059747;28;20021;-51
2023/05/02 04:23:41;;;;;;;12.43;7.18;;;8.10;99.90;;;;;;5058588;28;20068;-52
2023/05/02 04:26:07;;;;;;;14.18;7.95;;;8.10;99.90;;;;;;5054022;28;20032;-50
2023/05/02 04:28:34;;;;;;;15.63;8.73;;;8.20;99.90;;;;;;5058390;28;20036;-52
2023/05/02 04:31:00;;;;;;;14.02;9.15;;;8.20;99.90;;;;;;5052264;28;20118;-50
2023/05/02 04:33:26;;;;;;;18.20;11.30;;;8.30;99.90;;;;;;5058885;28;20033;-47
2023/05/02 04:35:52;;;;;;;21.20;10.95;;;8.50;99.90;;;;;;5050672;28;20032;-46
2023/05/02 04:38:17;;;;;;;21.30;12.00;;;8.60;99.90;;;;;;5052011;28;20471;-46
2023/05/02 04:40:43;;;;;;;23.15;12.50;;;8.70;99.90;;;;;;5051773;28;20120;-49
2023/05/02 04:43:09;;;;;;;22.88;12.68;;;8.80;99.90;;;;;;5051806;28;20067;-53
2023/05/02 04:45:35;;;;;;;17.88;10.57;;;8.90;99.90;;;;;;5051928;28;20391;-57
2023/05/02 04:48:01;;;;;;;16.67;10.30;;;8.80;99.90;;;;;;5051779;28;20017;-51
2023/05/02 04:50:28;;;;;;;19.75;9.88;;;8.70;99.90;;;;;;5051764;28;20028;-56
2023/05/02 04:52:53;;;;;;;16.67;10.15;;;8.70;99.90;;;;;;5051705;28;20367;-55
2023/05/02 04:55:19;;;;;;;17.52;9.77;;;8.70;99.90;;;;;;5052104;28;20476;-51
2023/05/02 04:57:45;;;;;;;16.75;9.68;;;8.70;99.90;;;;;;5051517;28;20033;-54
2023/05/02 05:00:11;;;;;;;23.50;10.23;;;8.70;99.90;;;;;;5051528;28;20021;-53
2023/05/02 05:02:38;;;;;;;16.48;10.13;;;8.80;99.90;;;;;;5051464;28;20040;-48
2023/05/02 05:05:04;;;;;;;20.98;11.13;;;8.90;99.90;;;;;;5055707;28;20048;-51
2023/05/02 05:07:30;;;;;;;17.42;10.90;;;8.90;99.90;;;;;;5051814;28;20048;-53
2023/05/02 05:09:56;;;;;;;17.73;10.75;;;8.90;99.90;;;;;;5068511;28;20028;-51
2023/05/02 05:12:22;;;;;;;20.15;11.30;;;8.90;99.90;;;;;;5058196;28;20074;-52
2023/05/02 05:14:49;;;;;;;23.15;12.07;;;9.10;99.90;;;;;;5051137;28;20021;-50
2023/05/02 05:17:14;;;;;;;21.70;11.60;;;9.20;99.90;;;;;;5051163;28;20048;-50
2023/05/02 05:19:40;;;;;;;23.85;12.48;;;9.40;99.90;;;;;;5050940;28;20411;-53
2023/05/02 05:22:07;;;;;;;23.67;13.52;;;9.60;99.90;;;;;;5051225;28;20027;-50
2023/05/02 05:24:32;;;;;;;23.30;12.30;;;9.80;99.90;;;;;;5052898;28;20041;-51
2023/05/02 05:26:58;;;;;;;22.25;13.05;;;10.00;99.90;;;;;;5052225;28;20083;-44
2023/05/02 05:29:24;;;;;;;19.20;11.68;;;10.20;99.90;;;;;;5050766;28;20464;-53
2023/05/02 05:31:49;;;;;;;23.67;11.95;;;10.40;99.90;;;;;;5050846;28;20021;-48
2023/05/02 05:34:15;;;;;;;25.77;12.63;;;10.50;99.90;;;;;;5051132;28;20029;-51
2023/05/02 05:36:41;;;;;;;20.92;12.23;;;10.60;99.90;;;;;;5050076;28;20353;-47
2023/05/02 05:39:07;;;;;;;22.92;11.50;;;10.70;99.90;;;;;;5050988;28;20021;-52
2023/05/02 05:41:34;;;;;;;23.13;12.07;;;10.80;99.90;;;;;;5050750;28;20044;-52
2023/05/02 05:44:00;;;;;;;19.40;11.43;;;10.90;99.90;;;;;;5050540;28;20789;-51
2023/05/02 05:46:25;;;;;;;25.20;11.88;;;10.90;99.90;;;;;;5050602;28;20017;-47
2023/05/02 05:48:52;;;;;;;20.90;11.00;;;11.00;99.90;;;;;;5050540;28;20029;-52
2023/05/02 05:51:17;;;;;;;20.33;11.23;;;11.10;99.90;;;;;;5050665;28;20021;-51
2023/05/02 05:53:43;;;;;;;19.33;9.75;;;11.10;99.90;;;;;;5050574;28;20381;-50
2023/05/02 05:56:10;;;;;;;16.23;9.55;;;11.10;99.90;;;;;;5057407;28;20103;-54
2023/05/02 05:58:36;;;;;;;15.57;9.20;;;11.20;99.90;;;;;;5050649;28;20036;-48
2023/05/02 06:01:01;;;;;;;18.15;10.35;;;11.20;99.90;;;;;;5050511;28;20523;-45
2023/05/02 06:03:27;;;;;;;19.48;9.82;;;11.40;99.90;;;;;;5050587;28;20166;-45
2023/05/02 06:05:52;;;;;;;17.00;9.25;;;11.40;99.90;;;;;;5050329;28;20017;-48
2023/05/02 06:08:20;;;;;;;15.85;8.02;;;11.60;99.90;;;;;;5050531;28;20515;-56
2023/05/02 06:10:46;;;;;;;11.88;7.63;;;11.70;99.90;;;;;;5064496;28;20514;-54
2023/05/02 06:13:11;;;;;;;14.00;6.60;;;11.80;99.90;;;;;;5070564;28;20483;-55
2023/05/02 06:15:37;;;;;;;12.52;6.00;;;11.80;99.90;;;;;;5070547;28;20035;-49
2023/05/02 06:18:03;;;;;;;13.68;6.40;;;11.90;99.90;;;;;;5070422;28;20028;-48
2023/05/02 06:20:28;;;;;;;11.55;5.65;;;12.00;99.90;;;;;;5070554;28;20078;-50
2023/05/02 06:22:54;;;;;;;11.15;4.82;;;12.20;99.90;;;;;;5070331;28;20078;-59
2023/05/02 06:25:19;;;;;;;8.38;4.57;;;12.30;99.90;;;;;;5070304;28;20077;-48
2023/05/02 06:27:45;;;;;;;9.63;4.30;;;12.30;99.90;;;;;;5070614;28;20732;-58
2023/05/02 06:30:11;;;;;;;12.70;4.45;;;12.40;99.90;;;;;;5069861;28;20070;-53
2023/05/02 06:32:37;;;;;;;10.23;5.25;;;12.40;99.90;;;;;;5058388;28;20060;-51
2023/05/02 06:35:03;;;;;;;12.13;4.10;;;12.40;99.90;;;;;;5064207;28;20041;-52
2023/05/02 06:37:33;;;;;;;13.90;4.43;;;12.30;99.90;;;;;;5050292;28;20043;-53
2023/05/02 06:39:59;;;;;;;7.45;4.38;;;12.40;99.90;;;;;;5048810;28;20443;-47
2023/05/02 06:42:24;;;;;;;8.15;4.22;;;12.40;99.90;;;;;;5050079;28;20502;-55
2023/05/02 06:44:50;;;;;;;12.68;4.53;;;12.40;99.90;;;;;;5058826;28;20086;-49
2023/05/02 06:47:16;;;;;;;10.98;4.63;;;12.40;99.90;;;;;;5058939;28;20370;-55
2023/05/02 06:49:41;;;;;;;8.50;3.97;;;12.40;99.90;;;;;;5057823;28;20129;-52
2023/05/02 06:52:07;;;;;;;10.82;4.30;;;12.50;99.90;;;;;;5058039;28;20465;-46
2023/05/02 06:54:33;;;;;;;8.68;4.22;;;12.60;99.90;;;;;;5068822;28;20040;-46
2023/05/02 06:56:58;;;;;;;12.73;4.28;;;12.60;99.90;;;;;;5068815;28;20437;-50
2023/05/02 06:59:25;;;;;;;8.88;4.47;;;12.70;99.90;;;;;;5055066;28;20025;-54
2023/05/02 07:01:50;;;;;;;12.75;4.93;;;12.70;99.90;;;;;;5054840;28;20029;-54
2023/05/02 07:04:16;;;;;;;12.63;4.40;;;12.70;99.90;;;;;;5053545;28;20028;-48
2023/05/02 07:06:41;;;;;;;10.25;4.50;;;12.50;99.90;;;;;;5055643;28;20021;-50
2023/05/02 07:09:07;;;;;;;14.77;5.20;;;12.40;99.90;;;;;;5055409;28;20123;-53
2023/05/02 07:11:33;;;;;;;13.73;5.03;;;12.40;99.90;;;;;;5063350;28;20020;-53
2023/05/02 07:13:58;;;;;;;11.18;4.15;;;12.40;99.90;;;;;;5053415;28;20041;-48
2023/05/02 07:16:24;;;;;;;12.52;5.45;;;12.30;99.90;;;;;;5055300;28;20516;-52
2023/05/02 07:18:49;;;;;;;10.75;3.95;;;12.20;99.90;;;;;;5056195;28;20052;-50
2023/05/02 07:21:17;;;;;;;11.30;4.30;;;12.30;99.90;;;;;;5053301;28;20108;-50
2023/05/02 07:23:42;;;;;;;12.35;4.10;;;12.30;99.90;;;;;;5053347;28;20059;-50
2023/05/02 07:26:08;;;;;;;9.43;3.40;;;12.40;99.90;;;;;;5053007;28;20384;-46
2023/05/02 07:28:33;;;;;;;10.73;3.80;;;12.40;99.90;;;;;;5053221;28;20083;-53
2023/05/02 07:30:59;;;;;;;9.88;2.80;;;12.40;99.90;;;;;;5053174;28;20475;-48
2023/05/02 07:33:25;;;;;;;10.60;3.17;;;12.40;99.90;;;;;;5085330;28;20067;-51
2023/05/02 07:35:50;;;;;;;7.80;3.33;;;12.50;99.90;;;;;;5053178;28;20384;-47
2023/05/02 07:38:16;;;;;;;5.93;3.13;;;12.50;99.90;;;;;;5066671;28;20020;-47
2023/05/02 07:40:42;;;;;;;8.70;3.20;;;12.40;99.90;;;;;;5053085;28;20040;-55
2023/05/02 07:43:08;;;;;;;9.88;3.30;;;12.30;99.90;;;;;;5053322;28;20055;-51
2023/05/02 07:45:34;;;;;;;8.25;3.53;;;12.30;99.90;;;;;;5054274;28;20033;-54
2023/05/02 07:48:00;;;;;;;9.48;3.35;;;12.40;99.90;;;;;;5052646;28;20455;-48
2023/05/02 07:50:26;;;;;;;8.50;4.13;;;12.40;99.90;;;;;;5057006;28;20032;-53
2023/05/02 07:52:53;;;;;;;9.07;3.28;;;12.30;99.90;;;;;;5065618;28;20024;-48
2023/05/02 07:55:19;;;;;;;9.73;3.70;;;12.40;99.90;;;;;;5061839;28;20033;-49
2023/05/02 07:57:44;;;;;;;13.35;3.92;;;12.40;99.90;;;;;;5068050;28;20407;-53
2023/05/02 08:00:10;;;;;;;11.57;3.80;;;12.30;99.90;;;;;;5068282;28;20032;-53
2023/05/02 08:02:36;;;;;;;9.80;3.60;;;12.30;99.90;;;;;;5054819;28;20033;-51
2023/05/02 08:05:02;;;;;;;11.32;4.00;;;12.30;99.90;;;;;;5057839;28;20031;-47
2023/05/02 08:07:28;;;;;;;14.90;4.38;;;12.40;99.90;;;;;;5060784;28;20021;-54
2023/05/02 08:09:54;;;;;;;7.57;3.50;;;12.40;99.90;;;;;;5059508;28;20463;-52
2023/05/02 08:12:20;;;;;;;10.18;3.47;;;12.40;99.90;;;;;;5072381;28;20380;-53
2023/05/02 08:14:45;;;;;;;10.07;3.25;;;12.50;99.90;;;;;;5071894;28;20082;-55
2023/05/02 08:17:11;;;;;;;9.50;3.58;;;12.60;99.90;;;;;;5062695;28;20029;-49
2023/05/02 08:19:36;;;;;;;7.78;2.95;;;12.60;99.90;;;;;;5067227;28;20021;-50
2023/05/02 08:22:02;;;;;;;7.38;3.15;;;12.70;99.90;;;;;;5068424;28;20028;-45
2023/05/02 08:24:29;;;;;;;7.65;2.95;;;12.70;99.90;;;;;;5068238;28;20203;-48
2023/05/02 08:26:55;;;;;;;5.63;2.72;;;12.80;99.90;;;;;;5052020;28;20422;-51
2023/05/02 08:29:21;;;;;;;7.35;2.60;;;13.20;99.90;;;;;;5052328;28;20158;-54
2023/05/02 08:31:47;;;;;;;6.22;2.60;;;13.60;99.90;;;;;;5053394;28;20051;-50
2023/05/02 08:34:13;;;;;;;6.28;2.22;;;13.70;99.90;;;;;;5052395;28;20065;-48
2023/05/02 08:36:38;;;;;;;8.43;2.65;;;13.90;99.90;;;;;;5052128;28;20393;-51
2023/05/02 08:39:06;;;;;;;4.15;1.95;;;14.10;99.90;;;;;;5051818;28;20017;-47
2023/05/02 08:41:32;;;;;;;3.58;2.00;;;14.20;99.90;;;;;;5060114;28;20121;-50
2023/05/02 08:43:58;;;;;;;7.25;2.47;;;14.20;99.90;;;;;;5053274;28;20080;-52
2023/05/02 08:46:25;;;;;;;7.43;2.20;;;14.10;99.90;;;;;;5051918;28;20464;-46
2023/05/02 08:48:52;;;;;;;6.35;2.00;;;14.10;99.90;;;;;;5059468;28;20037;-55
2023/05/02 08:51:18;;;;;;;5.90;2.10;;;13.80;99.90;;;;;;5068628;28;20079;-50
2023/05/02 08:53:44;;;;;;;6.40;2.53;;;13.70;99.90;;;;;;5053756;28;20122;-46
2023/05/02 08:56:11;;;;;;;5.38;2.30;;;13.70;99.90;;;;;;5051746;28;20021;-49
2023/05/02 08:58:42;;;;;;;5.88;2.40;;;13.60;99.90;;;;;;5050228;28;20032;-50
2023/05/02 09:01:18;;;;;;;9.05;2.83;;;13.80;99.90;;;;;;5058779;28;20025;-52
2023/05/02 09:03:45;;;;;;;7.25;2.42;;;14.10;99.90;;;;;;5051589;28;20045;-52
2023/05/02 09:06:15;;;;;;;6.35;2.40;;;14.30;99.90;;;;;;5057631;28;20028;-48
2023/05/02 09:08:41;;;;;;;;;;;14.20;99.90;;;;;;5051685;28;20030;-50
2023/05/02 09:11:09;;;;;;;7.25;2.40;;;14.00;99.90;;;;;;5067572;28;20298;-52
2023/05/02 09:13:49;;;;;;;8.63;2.35;;;13.90;99.90;;;;;;5071386;28;20024;-50
2023/05/02 09:16:24;;;;;;;6.97;2.53;;;13.80;99.90;;;;;;5070740;28;20035;-52
2023/05/02 09:18:54;;;;;;;7.43;3.00;;;13.80;99.90;;;;;;5071222;28;20025;-54
2023/05/02 09:21:22;;;;;;;6.63;2.75;;;14.00;99.90;;;;;;5070814;28;20077;-49
2023/05/02 09:23:59;;;;;;;6.80;2.72;;;14.20;99.90;;;;;;5071019;28;20411;-51
2023/05/02 09:26:32;;;;;;;7.30;3.08;;;14.30;99.90;;;;;;5069764;28;20444;-53
2023/05/02 09:29:00;;;;;;;8.13;2.58;;;14.10;99.90;;;;;;5071103;28;20025;-51
2023/05/02 09:31:36;;;;;;;10.90;3.20;;;14.00;99.90;;;;;;5070733;28;20032;-48
2023/05/02 09:34:13;;;;;;;6.55;2.70;;;14.00;99.90;;;;;;5049834;28;20544;-50
2023/05/02 09:36:40;;;;;;;8.00;3.20;;;14.00;99.90;;;;;;5068051;28;20024;-47
2023/05/02 09:39:13;;;;;;;6.28;2.92;;;13.90;99.90;;;;;;5071021;28;20031;-54
2023/05/02 09:41:44;;;;;;;12.77;3.38;;;14.00;99.90;;;;;;5070577;28;20046;-49
2023/05/02 09:44:11;;;;;;;9.27;3.22;;;13.90;99.90;;;;;;5070828;28;20039;-48
2023/05/02 09:46:50;;;;;;;11.80;3.92;;;13.90;99.90;;;;;;5070649;28;20050;-46
2023/05/02 09:49:17;;;;;;;9.43;3.22;;;13.90;99.90;;;;;;5070828;28;20024;-48
2023/05/02 09:51:45;;;;;;;11.52;3.13;;;14.00;99.90;;;;;;5070423;28;20033;-50
2023/05/02 09:54:11;;;;;;;10.55;3.42;;;14.20;99.90;;;;;;5070847;28;20024;-56
2023/05/02 09:56:52;;;;;;;13.75;3.22;;;14.20;99.90;;;;;;5070753;28;20031;-58
2023/05/02 09:59:17;;;;;;;12.70;3.50;;;14.20;99.90;;;;;;5070726;28;20463;-49
2023/05/02 10:01:43;;;;;;;10.93;4.70;;;14.40;99.90;;;;;;5070800;28;20124;-46
2023/05/02 10:04:17;;;;;;;9.07;4.60;;;14.50;99.90;;;;;;5056780;28;20123;-44
2023/05/02 10:06:44;;;;;;;10.98;4.20;;;14.50;99.90;;;;;;5069006;28;20065;-45
2023/05/02 10:09:11;;;;;;;12.50;4.63;;;14.50;99.90;;;;;;5056341;28;20035;-46
2023/05/02 10:11:43;;;;;;;10.25;3.88;;;14.40;99.90;;;;;;5061105;28;20538;-50
2023/05/02 10:14:09;;;;;;;9.02;3.60;;;14.30;99.90;;;;;;5050363;28;20029;-50
2023/05/02 10:16:37;;;;;;;8.00;3.42;;;14.20;99.90;;;;;;5082764;28;20051;-54
2023/05/02 10:19:12;;;;;;;10.35;3.42;;;14.30;99.90;;;;;;5050428;28;20074;-51
2023/05/02 10:21:42;;;;;;;7.13;3.00;;;14.30;99.90;;;;;;5055806;28;20079;-51
2023/05/02 10:24:08;;;;;;;8.48;2.80;;;14.30;99.90;;;;;;5052261;28;20571;-46
2023/05/02 10:26:35;;;;;;;11.63;3.42;;;14.40;99.90;;;;;;5056956;28;20025;-47
2023/05/02 10:29:01;;;;;;;8.65;2.70;;;14.50;99.90;;;;;;5062352;28;20025;-51
2023/05/02 10:31:32;;;;;;;10.93;3.45;;;14.50;99.90;;;;;;5060104;28;20032;-52
2023/05/02 10:34:00;;;;;;;8.57;3.03;;;14.60;99.90;;;;;;5054397;28;20168;-56
2023/05/02 10:36:27;;;;;;;7.30;2.70;;;14.70;99.90;;;;;;5059946;28;20115;-49
2023/05/02 10:38:54;;;;;;;10.80;2.75;;;14.80;99.90;;;;;;5058553;28;20480;-54
2023/05/02 10:41:23;;;;;;;9.48;2.88;;;15.00;99.90;;;;;;5068174;28;20055;-50
2023/05/02 10:43:49;;;;;;;10.35;3.10;;;15.10;99.90;;;;;;5054122;28;20055;-52
2023/05/02 10:46:35;;;;;;;9.82;2.78;;;15.30;99.90;;;;;;5054125;28;20025;-46
2023/05/02 10:49:09;;;;;;;9.73;2.40;;;15.10;99.90;;;;;;5054063;28;20024;-52
2023/05/02 10:51:37;;;;;;;7.30;2.30;;;15.40;99.90;;;;;;5057299;28;20025;-49
2023/05/02 10:54:18;;;;;;;9.18;2.72;;;15.30;99.90;;;;;;5054007;28;20075;-47
2023/05/02 10:57:02;;;;;;;9.77;2.55;;;15.40;99.90;;;;;;5060409;28;20036;-46
2023/05/02 10:59:34;;;;;;;8.60;2.15;;;15.80;99.90;;;;;;5054016;28;20139;-46
2023/05/02 11:02:00;;;;;;;6.78;2.00;;;15.70;99.90;;;;;;5053758;28;20060;-50
2023/05/02 11:04:58;;;;;;;6.32;1.70;;;15.80;99.90;;;;;;5053654;28;20037;-48
2023/05/02 11:07:24;;;;;;;8.32;2.15;;;16.10;99.90;;;;;;5053525;28;20032;-46
2023/05/02 11:09:49;;;;;;;5.53;1.70;;;15.90;99.90;;;;;;5059872;28;20020;-49
2023/05/02 11:12:47;;;;;;;7.50;1.90;;;16.00;99.90;;;;;;5073645;28;20029;-53
2023/05/02 11:15:33;;;;;;;6.00;1.73;;;16.20;99.90;;;;;;5073772;28;20032;-44
2023/05/02 11:18:12;;;;;;;5.80;1.90;;;16.40;99.90;;;;;;5058710;28;20384;-46
2023/05/02 11:20:44;;;;;;;4.13;1.85;;;16.40;99.90;;;;;;5071233;28;20024;-49
2023/05/02 11:23:13;;;;;;;6.75;2.05;;;16.50;99.90;;;;;;5052827;28;20047;-51
2023/05/02 11:25:42;;;;;;;7.15;2.00;;;16.30;99.90;;;;;;5062836;28;20017;-50
2023/05/02 11:28:37;;;;;;;7.77;2.10;;;16.30;99.90;;;;;;5053054;28;20558;-54
2023/05/02 11:31:04;;;;;;;5.45;1.90;;;16.30;99.90;;;;;;5075640;28;20110;-47
2023/05/02 11:33:30;;;;;;;7.93;2.25;;;16.40;99.90;;;;;;5053215;28;20056;-50
2023/05/02 11:35:57;;;;;;;6.63;1.90;;;16.40;99.90;;;;;;5063938;28;20197;-53
2023/05/02 11:38:24;;;;;;;6.15;1.92;;;16.50;99.90;;;;;;5053706;28;20029;-49
2023/05/02 11:40:54;;;;;;;6.93;1.70;;;16.70;99.90;;;;;;5062898;28;20068;-54
2023/05/02 11:43:21;;;;;;;5.22;1.80;;;16.60;99.90;;;;;;5054972;28;20025;-53
2023/05/02 11:45:47;;;;;;;7.18;1.98;;;16.90;99.90;;;;;;5053983;28;20029;-46
2023/05/02 11:48:17;;;;;;;9.43;1.98;;;16.90;99.90;;;;;;5053111;28;20029;-46
2023/05/02 11:50:55;;;;;;;5.78;1.48;;;16.80;99.90;;;;;;5062106;28;20063;-47
2023/05/02 11:53:28;;;;;;;7.78;2.00;;;17.10;99.90;;;;;;5053049;28;20056;-46
2023/05/02 11:55:59;;;;;;;7.63;2.25;;;16.90;99.90;;;;;;5061372;28;20534;-45
2023/05/02 11:58:31;;;;;;;6.88;2.10;;;17.40;99.90;;;;;;5055702;28;20032;-50
2023/05/02 12:00:57;;;;;;;8.52;2.72;;;17.70;99.90;;;;;;5059321;28;20025;-45
2023/05/02 12:03:27;;;;;;;5.18;1.80;;;17.70;99.90;;;;;;5068410;28;20445;-53
2023/05/02 12:05:53;;;;;;;5.85;2.00;;;18.00;99.90;;;;;;5052771;28;20082;-56
2023/05/02 12:08:24;;;;;;;8.02;2.50;;;18.10;99.90;;;;;;5054494;28;20025;-49
2023/05/02 12:10:51;;;;;;;7.63;2.10;;;18.30;99.60;;;;;;5067260;28;20028;-52
2023/05/02 12:13:16;;;;;;;6.55;2.20;;;18.50;99.90;;;;;;5072771;28;20020;-54
2023/05/02 12:15:42;;;;;;;9.15;1.83;;;18.70;99.10;;;;;;5072696;28;20116;-51
2023/05/02 12:18:08;;;;;;;4.10;1.58;;;18.70;98.20;;;;;;5072242;28;20029;-51
2023/05/02 12:20:35;;;;;;;8.43;1.80;;;18.60;97.10;;;;;;5072614;28;20021;-44
2023/05/02 12:23:03;;;;;;;4.97;1.80;;;18.60;97.50;;;;;;5072226;28;20468;-56
2023/05/02 12:25:28;;;;;;;7.18;1.83;;;18.60;98.50;;;;;;5072345;28;20024;-51
2023/05/02 12:27:59;;;;;;;7.63;2.00;;;18.80;98.60;;;;;;5072152;28;20115;-54
2023/05/02 12:30:26;;;;;;;5.82;1.85;;;18.80;97.30;;;;;;5072185;28;20426;-50
2023/05/02 12:32:57;;;;;;;5.28;1.60;;;19.00;96.80;;;;;;5072205;28;20029;-47
2023/05/02 12:35:22;;;;;;;7.40;2.08;;;19.30;95.20;;;;;;5058758;28;20510;-43
2023/05/02 12:37:48;;;;;;;5.55;1.73;;;19.20;95.20;;;;;;5072010;28;20060;-49
2023/05/02 12:40:16;;;;;;;6.47;1.90;;;19.20;95.00;;;;;;5072083;28;20387;-54
2023/05/02 12:42:42;;;;;;;8.90;2.03;;;18.70;93.80;;;;;;5079961;28;20036;-46
2023/05/02 12:45:17;;;;;;;7.63;2.33;;;18.90;96.10;;;;;;5074282;28;20053;-51
2023/05/02 12:47:46;;;;;;;6.00;1.60;;;18.40;94.30;;;;;;5071799;28;20023;-46
2023/05/02 12:50:11;;;;;;;8.27;1.83;;;18.70;97.10;;;;;;5059803;28;20741;-53
2023/05/02 12:52:56;;;;;;;7.82;2.00;;;19.00;94.50;;;;;;5051962;28;20254;-48